Time;durP1;ratioP1;P1;durP2;ratioP2;P2;SDS_P1;SDS_P2;PMS_P1;PMS_P2;Temp;Humidity;BMP_temperature;BMP_pressure;BME280_temperature;BME280_humidity;BME280_pressure;Samples;Min_cycle;Max_cycle;Signal;HPM_P1;HPM_P2
2022/07/08 00:01:09;;;;;;;0.00;0.00;;;14.40;77.10;;;;;;4992295;28;20558;-71
2022/07/08 00:03:35;;;;;;;0.00;0.00;;;14.30;77.20;;;;;;4990346;28;20871;-71
2022/07/08 00:06:01;;;;;;;0.00;0.00;;;14.30;77.20;;;;;;4986744;28;20081;-71
2022/07/08 00:08:27;;;;;;;0.00;0.00;;;14.20;77.20;;;;;;4992976;28;20046;-71
2022/07/08 00:10:53;;;;;;;3.13;1.55;;;14.20;77.30;;;;;;4991993;28;20118;-71
2022/07/08 00:13:19;;;;;;;0.00;0.00;;;14.20;77.40;;;;;;4991247;28;20046;-71
2022/07/08 00:15:44;;;;;;;0.22;0.22;;;14.20;77.60;;;;;;4991037;28;20058;-72
2022/07/08 00:18:10;;;;;;;0.00;0.00;;;14.30;77.60;;;;;;4991693;28;20044;-71
2022/07/08 00:20:37;;;;;;;0.00;0.00;;;14.30;77.70;;;;;;4992063;28;20042;-71
2022/07/08 00:23:02;;;;;;;0.00;0.00;;;14.30;77.70;;;;;;4992298;28;20096;-71
2022/07/08 00:25:28;;;;;;;0.00;0.00;;;14.30;77.90;;;;;;4992646;28;20050;-71
2022/07/08 00:27:54;;;;;;;0.00;0.00;;;14.30;77.90;;;;;;4992368;28;20133;-71
2022/07/08 00:30:20;;;;;;;0.00;0.00;;;14.30;78.00;;;;;;4991977;28;20125;-71
2022/07/08 00:32:45;;;;;;;0.00;0.00;;;14.30;78.20;;;;;;4989927;28;20108;-71
2022/07/08 00:35:11;;;;;;;0.00;0.00;;;14.20;78.20;;;;;;4987688;28;20050;-71
2022/07/08 00:37:36;;;;;;;0.00;0.00;;;14.30;78.20;;;;;;4992009;28;20050;-71
2022/07/08 00:40:03;;;;;;;0.00;0.00;;;14.30;78.10;;;;;;4991409;28;20496;-71
2022/07/08 00:42:29;;;;;;;0.00;0.00;;;14.30;78.20;;;;;;4992169;28;20086;-71
2022/07/08 00:44:55;;;;;;;0.15;0.15;;;14.30;78.50;;;;;;4991742;28;20072;-71
2022/07/08 00:47:20;;;;;;;0.00;0.00;;;14.40;78.40;;;;;;4991229;28;20046;-71
2022/07/08 00:49:48;;;;;;;0.00;0.00;;;14.40;78.50;;;;;;4971676;28;20121;-71
2022/07/08 00:52:14;;;;;;;0.00;0.00;;;14.40;78.80;;;;;;4986683;28;20042;-71
2022/07/08 00:54:39;;;;;;;0.00;0.00;;;14.30;78.80;;;;;;4991575;28;20046;-71
2022/07/08 00:57:05;;;;;;;0.00;0.00;;;14.10;79.90;;;;;;4991684;28;20407;-71
2022/07/08 00:59:31;;;;;;;0.00;0.00;;;14.10;80.30;;;;;;4991900;28;20038;-71
2022/07/08 01:01:57;;;;;;;0.00;0.00;;;14.00;80.50;;;;;;4991320;28;20089;-71
2022/07/08 01:04:23;;;;;;;0.10;0.10;;;13.90;80.70;;;;;;4990066;28;20101;-71
2022/07/08 01:06:48;;;;;;;0.00;0.00;;;13.80;80.90;;;;;;4991246;28;20056;-71
2022/07/08 01:09:17;;;;;;;0.00;0.00;;;13.70;81.10;;;;;;4991917;28;20050;-71
2022/07/08 01:11:45;;;;;;;0.00;0.00;;;13.80;81.00;;;;;;4991623;28;20039;-71
2022/07/08 01:14:12;;;;;;;0.00;0.00;;;13.70;80.90;;;;;;4991315;28;20038;-71
2022/07/08 01:16:38;;;;;;;0.00;0.00;;;13.70;80.90;;;;;;4991267;28;20133;-71
2022/07/08 01:19:03;;;;;;;0.00;0.00;;;13.70;80.70;;;;;;4989983;28;20126;-71
2022/07/08 01:21:29;;;;;;;0.00;0.00;;;13.80;80.60;;;;;;4989411;28;20046;-71
2022/07/08 01:23:55;;;;;;;0.30;0.30;;;13.80;80.40;;;;;;4991346;28;20096;-71
2022/07/08 01:26:21;;;;;;;0.00;0.00;;;13.80;80.60;;;;;;4991187;28;20042;-71
2022/07/08 01:28:46;;;;;;;0.00;0.00;;;13.70;80.30;;;;;;4991222;28;20057;-71
2022/07/08 01:31:12;;;;;;;0.00;0.00;;;13.70;80.50;;;;;;4990989;28;20038;-71
2022/07/08 01:33:38;;;;;;;0.00;0.00;;;13.70;80.50;;;;;;4971051;28;20050;-71
2022/07/08 01:36:04;;;;;;;0.00;0.00;;;13.60;80.50;;;;;;4976398;28;20053;-71
2022/07/08 01:38:30;;;;;;;0.00;0.00;;;13.60;80.60;;;;;;4989395;28;20096;-71
2022/07/08 01:40:55;;;;;;;0.00;0.00;;;13.70;80.50;;;;;;4991276;28;20194;-71
2022/07/08 01:43:21;;;;;;;0.00;0.00;;;13.60;80.30;;;;;;4990489;28;20046;-71
2022/07/08 01:45:47;;;;;;;0.00;0.00;;;13.60;80.20;;;;;;4991233;28;20047;-71
2022/07/08 01:48:13;;;;;;;0.00;0.00;;;13.60;80.50;;;;;;4991013;28;20563;-71
2022/07/08 01:50:38;;;;;;;0.10;0.10;;;13.60;80.30;;;;;;4990820;28;20208;-71
2022/07/08 01:53:04;;;;;;;0.00;0.00;;;13.60;80.30;;;;;;4989622;28;20403;-71
2022/07/08 01:55:29;;;;;;;0.00;0.00;;;13.70;80.10;;;;;;4990675;28;20125;-71
2022/07/08 01:57:55;;;;;;;0.10;0.10;;;13.60;80.20;;;;;;4989988;28;20070;-71
2022/07/08 02:00:21;;;;;;;0.00;0.00;;;13.60;80.50;;;;;;4990662;28;20432;-71
2022/07/08 02:02:47;;;;;;;0.10;0.10;;;13.60;80.90;;;;;;4990421;28;20047;-71
2022/07/08 02:05:13;;;;;;;0.00;0.00;;;13.50;81.10;;;;;;4990428;28;20104;-71
2022/07/08 02:07:40;;;;;;;0.00;0.00;;;13.50;81.10;;;;;;4989793;28;20117;-71
2022/07/08 02:10:06;;;;;;;0.00;0.00;;;13.50;81.10;;;;;;4990823;28;20085;-71
2022/07/08 02:12:32;;;;;;;0.00;0.00;;;13.50;81.00;;;;;;4989981;28;20511;-71
2022/07/08 02:15:04;;;;;;;0.00;0.00;;;13.50;81.00;;;;;;4990511;28;20050;-71
2022/07/08 02:17:34;;;;;;;0.00;0.00;;;13.50;81.00;;;;;;4989616;28;20121;-71
2022/07/08 02:20:00;;;;;;;0.00;0.00;;;13.50;80.90;;;;;;4989878;28;20369;-71
2022/07/08 02:22:26;;;;;;;0.00;0.00;;;13.40;81.20;;;;;;4985470;28;20035;-71
2022/07/08 02:24:52;;;;;;;0.00;0.00;;;13.40;81.10;;;;;;4990108;28;20492;-71
2022/07/08 02:27:18;;;;;;;0.00;0.00;;;13.40;81.20;;;;;;4990044;28;20046;-71
2022/07/08 02:29:44;;;;;;;0.00;0.00;;;13.40;81.20;;;;;;4990235;28;20090;-71
2022/07/08 02:32:10;;;;;;;0.00;0.00;;;13.40;81.10;;;;;;4989912;28;20049;-71
2022/07/08 02:34:36;;;;;;;0.00;0.00;;;13.30;81.20;;;;;;4989747;28;20069;-71
2022/07/08 02:37:02;;;;;;;0.00;0.00;;;13.30;81.50;;;;;;4989311;28;20046;-71
2022/07/08 02:39:27;;;;;;;0.00;0.00;;;13.30;81.50;;;;;;4990056;28;20061;-71
2022/07/08 02:41:53;;;;;;;0.00;0.00;;;13.30;81.40;;;;;;4990164;28;20041;-71
2022/07/08 02:44:18;;;;;;;0.00;0.00;;;13.30;81.40;;;;;;4990158;28;20049;-71
2022/07/08 02:46:45;;;;;;;0.00;0.00;;;13.20;81.50;;;;;;4989558;28;20145;-71
2022/07/08 02:49:11;;;;;;;0.00;0.00;;;13.20;81.80;;;;;;4989860;28;20050;-71
2022/07/08 02:51:37;;;;;;;0.22;0.22;;;13.10;81.80;;;;;;4985379;28;20053;-71
2022/07/08 02:54:04;;;;;;;0.13;0.13;;;13.10;82.00;;;;;;4989849;28;20036;-71
2022/07/08 02:56:30;;;;;;;0.10;0.10;;;13.10;82.30;;;;;;4989725;28;20042;-71
2022/07/08 02:58:56;;;;;;;0.00;0.00;;;13.10;82.50;;;;;;4989509;28;20046;-71
2022/07/08 03:01:21;;;;;;;1.25;0.30;;;13.10;82.60;;;;;;4989172;28;20478;-71
2022/07/08 03:03:47;;;;;;;0.00;0.00;;;13.00;82.80;;;;;;4988427;28;20092;-71
2022/07/08 03:06:13;;;;;;;0.00;0.00;;;13.00;82.60;;;;;;4983925;28;21104;-71
2022/07/08 03:08:38;;;;;;;0.00;0.00;;;13.00;82.70;;;;;;4975319;28;20122;-71
2022/07/08 03:11:04;;;;;;;0.00;0.00;;;13.10;82.50;;;;;;4982502;28;20057;-71
2022/07/08 03:13:30;;;;;;;0.00;0.00;;;13.00;82.80;;;;;;4970656;28;20403;-71
2022/07/08 03:15:56;;;;;;;0.00;0.00;;;13.10;82.70;;;;;;4988923;28;20085;-71
2022/07/08 03:18:22;;;;;;;0.00;0.00;;;13.10;82.70;;;;;;4988217;28;20053;-71
2022/07/08 03:20:48;;;;;;;0.00;0.00;;;13.10;83.00;;;;;;4989263;28;20047;-71
2022/07/08 03:23:13;;;;;;;0.00;0.00;;;13.10;83.00;;;;;;4987981;28;20121;-71
2022/07/08 03:25:39;;;;;;;0.00;0.00;;;13.10;82.90;;;;;;4979145;28;20042;-71
2022/07/08 03:28:05;;;;;;;0.00;0.00;;;13.10;82.70;;;;;;4985767;28;20046;-71
2022/07/08 03:30:30;;;;;;;0.00;0.00;;;13.10;83.10;;;;;;4993553;28;20035;-71
2022/07/08 03:32:56;;;;;;;0.00;0.00;;;13.10;83.20;;;;;;4991226;28;20050;-71
2022/07/08 03:35:22;;;;;;;0.00;0.00;;;13.20;83.20;;;;;;4993367;28;20041;-71
2022/07/08 03:37:48;;;;;;;0.00;0.00;;;13.10;83.00;;;;;;4989132;28;20133;-71
2022/07/08 03:42:59;;;;;;;0.00;0.00;;;13.20;83.10;;;;;;4992135;28;20050;-71
2022/07/08 03:45:25;;;;;;;0.70;0.70;;;13.20;83.50;;;;;;4992883;28;20081;-71
2022/07/08 03:47:51;;;;;;;0.00;0.00;;;13.30;83.50;;;;;;4993213;28;20132;-71
2022/07/08 03:50:17;;;;;;;0.00;0.00;;;13.20;83.50;;;;;;4991735;28;20492;-71
2022/07/08 03:52:44;;;;;;;0.00;0.00;;;13.30;83.60;;;;;;4992040;28;20121;-71
2022/07/08 03:55:10;;;;;;;0.00;0.00;;;13.30;83.40;;;;;;4982652;28;20045;-71
2022/07/08 03:57:35;;;;;;;0.03;0.03;;;13.30;83.30;;;;;;4987563;28;20035;-71
2022/07/08 04:00:02;;;;;;;0.00;0.00;;;13.30;83.40;;;;;;4973468;28;20506;-71
2022/07/08 04:02:27;;;;;;;0.00;0.00;;;13.40;83.90;;;;;;4978397;28;20078;-71
2022/07/08 04:04:53;;;;;;;0.00;0.00;;;13.40;84.10;;;;;;4977431;28;20120;-71
2022/07/08 04:07:19;;;;;;;0.00;0.00;;;13.40;84.40;;;;;;4992704;28;20054;-71
2022/07/08 04:09:44;;;;;;;0.10;0.10;;;13.50;84.30;;;;;;4981072;28;20058;-71
2022/07/08 04:12:10;;;;;;;0.00;0.00;;;13.50;84.50;;;;;;4984336;28;20045;-71
2022/07/08 04:14:36;;;;;;;0.00;0.00;;;13.60;84.20;;;;;;4991640;28;20132;-71
2022/07/08 04:17:02;;;;;;;0.00;0.00;;;13.70;84.10;;;;;;4992693;28;21013;-71
2022/07/08 04:19:28;;;;;;;0.00;0.00;;;13.70;84.20;;;;;;5000192;28;20125;-71
2022/07/08 04:21:53;;;;;;;0.00;0.00;;;13.80;84.30;;;;;;4989568;28;20093;-71
2022/07/08 04:24:19;;;;;;;0.00;0.00;;;13.80;84.10;;;;;;4991624;28;20046;-71
2022/07/08 04:26:44;;;;;;;0.00;0.00;;;13.90;84.10;;;;;;4990951;28;20136;-71
2022/07/08 04:29:10;;;;;;;0.00;0.00;;;13.90;84.40;;;;;;4992705;28;20030;-71
2022/07/08 04:31:36;;;;;;;0.00;0.00;;;13.90;84.40;;;;;;4986565;28;20152;-71
2022/07/08 04:34:01;;;;;;;0.00;0.00;;;13.90;84.60;;;;;;4987299;28;20049;-72
2022/07/08 04:36:27;;;;;;;0.00;0.00;;;14.00;84.80;;;;;;4989541;28;20049;-71
2022/07/08 04:38:53;;;;;;;0.00;0.00;;;14.10;84.60;;;;;;4989200;28;20065;-71
2022/07/08 04:41:19;;;;;;;0.00;0.00;;;14.10;84.50;;;;;;4991239;28;20045;-71
2022/07/08 04:43:44;;;;;;;0.00;0.00;;;14.10;84.70;;;;;;4991044;28;20136;-72
2022/07/08 04:46:11;;;;;;;0.00;0.00;;;14.20;84.50;;;;;;4992044;28;20134;-72
2022/07/08 04:48:36;;;;;;;0.00;0.00;;;14.20;84.40;;;;;;4991917;28;20188;-71
2022/07/08 04:51:02;;;;;;;0.00;0.00;;;14.20;84.20;;;;;;4991824;28;20539;-71
2022/07/08 04:53:28;;;;;;;0.10;0.10;;;14.30;84.70;;;;;;4982381;28;20173;-71
2022/07/08 04:55:53;;;;;;;0.00;0.00;;;14.30;85.20;;;;;;4985699;28;20042;-71
2022/07/08 04:58:19;;;;;;;0.00;0.00;;;14.40;85.10;;;;;;4991236;28;20053;-70
2022/07/08 05:00:45;;;;;;;0.00;0.00;;;14.40;85.20;;;;;;4991264;28;20054;-71
2022/07/08 05:03:10;;;;;;;0.00;0.00;;;14.50;85.10;;;;;;4991685;28;20046;-71
2022/07/08 05:05:36;;;;;;;2.13;0.88;;;14.50;85.00;;;;;;4991255;28;20526;-70
2022/07/08 05:08:02;;;;;;;0.00;0.00;;;14.50;85.80;;;;;;4982673;28;20039;-67
2022/07/08 05:10:28;;;;;;;0.10;0.10;;;14.60;85.80;;;;;;4979642;28;20055;-65
2022/07/08 05:12:54;;;;;;;0.00;0.00;;;14.60;86.00;;;;;;4972190;28;20101;-65
2022/07/08 05:15:20;;;;;;;0.00;0.00;;;14.60;86.20;;;;;;4987893;28;20045;-65
2022/07/08 05:17:47;;;;;;;0.00;0.00;;;14.70;86.40;;;;;;4991232;28;20054;-65
2022/07/08 05:20:14;;;;;;;0.00;0.00;;;14.80;86.50;;;;;;4984171;28;20061;-69
2022/07/08 05:22:40;;;;;;;1.30;0.20;;;14.80;86.70;;;;;;4982741;28;21020;-70
2022/07/08 05:25:07;;;;;;;0.22;0.22;;;14.90;86.90;;;;;;4978158;28;20042;-70
2022/07/08 05:27:33;;;;;;;0.10;0.10;;;15.00;87.10;;;;;;4985140;28;20051;-70
2022/07/08 05:29:59;;;;;;;0.00;0.00;;;15.00;86.90;;;;;;4974073;28;20508;-71
2022/07/08 05:32:25;;;;;;;0.00;0.00;;;15.10;87.00;;;;;;4975499;28;20042;-72
2022/07/08 05:34:51;;;;;;;0.00;0.00;;;15.20;87.20;;;;;;4989772;28;20144;-66
2022/07/08 05:37:17;;;;;;;0.03;0.03;;;15.20;87.20;;;;;;4990059;28;20062;-70
2022/07/08 05:39:43;;;;;;;0.00;0.00;;;15.30;87.00;;;;;;4988788;28;20045;-69
2022/07/08 05:42:10;;;;;;;0.00;0.00;;;15.40;87.00;;;;;;4989824;28;20061;-68
2022/07/08 05:44:37;;;;;;;0.00;0.00;;;15.40;86.90;;;;;;4990338;28;20039;-69
2022/07/08 05:47:10;;;;;;;0.00;0.00;;;15.50;86.80;;;;;;4987383;28;20050;-70
2022/07/08 05:49:37;;;;;;;0.00;0.00;;;15.60;86.70;;;;;;4989479;28;20162;-69
2022/07/08 05:52:03;;;;;;;0.00;0.00;;;15.60;86.20;;;;;;4975746;28;20058;-69
2022/07/08 05:54:29;;;;;;;0.00;0.00;;;15.60;86.10;;;;;;4980604;28;20050;-69
2022/07/08 05:56:54;;;;;;;0.00;0.00;;;15.70;86.30;;;;;;4976600;28;20061;-69
2022/07/08 05:59:20;;;;;;;0.00;0.00;;;15.80;86.10;;;;;;4988689;28;20038;-68
2022/07/08 06:01:46;;;;;;;0.20;0.20;;;15.80;85.60;;;;;;4974314;28;20447;-68
2022/07/08 06:04:11;;;;;;;0.10;0.10;;;15.90;85.40;;;;;;4989494;28;20043;-69
2022/07/08 06:06:40;;;;;;;0.00;0.00;;;15.90;84.80;;;;;;4989585;28;20137;-67
2022/07/08 06:09:05;;;;;;;0.00;0.00;;;16.00;84.70;;;;;;4990015;28;20117;-68
2022/07/08 06:11:31;;;;;;;0.15;0.15;;;16.00;84.40;;;;;;4975143;28;20051;-69
2022/07/08 06:13:57;;;;;;;0.00;0.00;;;16.00;84.40;;;;;;4989737;28;20844;-68
2022/07/08 06:16:22;;;;;;;0.00;0.00;;;16.10;84.40;;;;;;4989901;28;20153;-69
2022/07/08 06:18:48;;;;;;;0.00;0.00;;;16.10;84.10;;;;;;4987800;28;20550;-71
2022/07/08 06:21:13;;;;;;;0.00;0.00;;;16.30;83.90;;;;;;4972881;28;20138;-68
2022/07/08 06:23:39;;;;;;;0.00;0.00;;;16.30;83.70;;;;;;4991120;28;20042;-68
2022/07/08 06:26:05;;;;;;;0.00;0.00;;;16.50;83.50;;;;;;4990322;28;20137;-68
2022/07/08 06:28:30;;;;;;;0.00;0.00;;;16.70;82.70;;;;;;4986938;28;20041;-68
2022/07/08 06:30:56;;;;;;;0.00;0.00;;;16.70;82.20;;;;;;4972134;28;20105;-68
2022/07/08 06:33:22;;;;;;;0.00;0.00;;;16.80;82.00;;;;;;4971748;28;20121;-68
2022/07/08 06:35:48;;;;;;;0.00;0.00;;;16.80;81.70;;;;;;4972038;28;20492;-68
2022/07/08 06:38:14;;;;;;;0.00;0.00;;;16.90;81.60;;;;;;4971891;28;20042;-68
2022/07/08 06:40:39;;;;;;;0.00;0.00;;;17.00;81.80;;;;;;4971834;28;20101;-68
2022/07/08 06:43:05;;;;;;;0.00;0.00;;;17.00;82.30;;;;;;4973488;28;20109;-68
2022/07/08 06:45:32;;;;;;;0.00;0.00;;;17.00;81.70;;;;;;4991196;28;20088;-68
2022/07/08 06:48:01;;;;;;;0.00;0.00;;;17.10;81.00;;;;;;4991043;28;20057;-67
2022/07/08 06:50:28;;;;;;;0.00;0.00;;;17.00;80.80;;;;;;4991143;28;20117;-68
2022/07/08 06:52:54;;;;;;;0.00;0.00;;;17.10;81.00;;;;;;4991212;28;20085;-67
2022/07/08 06:55:20;;;;;;;0.60;0.20;;;17.10;80.80;;;;;;4990293;28;20078;-68
2022/07/08 06:57:46;;;;;;;0.57;0.57;;;17.10;81.10;;;;;;4989992;28;20078;-67
2022/07/08 07:00:12;;;;;;;0.00;0.00;;;17.10;81.30;;;;;;4990776;28;20045;-68
2022/07/08 07:02:38;;;;;;;1.35;0.90;;;17.10;80.60;;;;;;4990422;28;20043;-67
2022/07/08 07:05:04;;;;;;;0.00;0.00;;;17.10;81.00;;;;;;4991177;28;20050;-67
2022/07/08 07:07:29;;;;;;;0.00;0.00;;;17.20;81.10;;;;;;4990625;28;20499;-68
2022/07/08 07:09:56;;;;;;;0.30;0.17;;;17.20;81.30;;;;;;4989201;28;20041;-66
2022/07/08 07:12:21;;;;;;;0.00;0.00;;;17.20;81.50;;;;;;4990453;28;20121;-65
2022/07/08 07:14:47;;;;;;;0.08;0.08;;;17.30;81.50;;;;;;4990406;28;20125;-65
2022/07/08 07:17:17;;;;;;;0.10;0.10;;;17.30;81.00;;;;;;4989627;28;20141;-65
2022/07/08 07:19:42;;;;;;;0.40;0.40;;;17.40;80.70;;;;;;4980282;28;20511;-64
2022/07/08 07:22:08;;;;;;;0.00;0.00;;;17.40;79.80;;;;;;4990262;28;20050;-64
2022/07/08 07:24:33;;;;;;;0.13;0.10;;;17.40;79.40;;;;;;4986801;28;20565;-65
2022/07/08 07:26:59;;;;;;;0.00;0.00;;;17.50;79.50;;;;;;4979066;28;20045;-64
2022/07/08 07:29:24;;;;;;;0.00;0.00;;;17.50;79.90;;;;;;4975731;28;20435;-64
2022/07/08 07:31:50;;;;;;;0.10;0.10;;;17.50;80.20;;;;;;4992960;28;20474;-64
2022/07/08 07:34:16;;;;;;;0.28;0.28;;;17.60;80.20;;;;;;4992611;28;20037;-64
2022/07/08 07:36:41;;;;;;;0.35;0.35;;;17.60;80.00;;;;;;5010185;28;20045;-66
2022/07/08 07:39:09;;;;;;;0.00;0.00;;;17.70;80.40;;;;;;5010139;28;20085;-64
2022/07/08 07:41:36;;;;;;;0.00;0.00;;;17.70;80.10;;;;;;4978555;28;20054;-64
2022/07/08 07:44:02;;;;;;;1.98;1.75;;;17.80;79.90;;;;;;4973297;28;20038;-64
2022/07/08 07:46:28;;;;;;;0.00;0.00;;;17.70;79.70;;;;;;4990591;28;20061;-65
2022/07/08 07:48:53;;;;;;;0.00;0.00;;;17.80;80.10;;;;;;5005552;28;20034;-65
2022/07/08 07:51:19;;;;;;;0.00;0.00;;;17.90;80.20;;;;;;5009950;28;20415;-64
2022/07/08 07:53:45;;;;;;;0.00;0.00;;;17.90;79.80;;;;;;5008610;28;20042;-65
2022/07/08 07:56:10;;;;;;;0.00;0.00;;;18.00;79.70;;;;;;4984383;28;20045;-64
2022/07/08 07:58:38;;;;;;;0.90;0.90;;;18.00;79.30;;;;;;4989864;28;20129;-64
2022/07/08 08:01:04;;;;;;;0.20;0.20;;;18.00;78.80;;;;;;4990425;28;20553;-65
2022/07/08 08:03:29;;;;;;;0.00;0.00;;;18.00;78.90;;;;;;4990503;28;20508;-64
2022/07/08 08:05:55;;;;;;;0.00;0.00;;;18.00;79.30;;;;;;4990412;28;20038;-65
2022/07/08 08:08:20;;;;;;;0.00;0.00;;;18.00;79.10;;;;;;4989799;28;20106;-64
2022/07/08 08:10:46;;;;;;;0.00;0.00;;;18.10;78.60;;;;;;4985506;28;20062;-64
2022/07/08 08:13:12;;;;;;;0.00;0.00;;;18.00;78.80;;;;;;4973482;28;20130;-64
2022/07/08 08:15:37;;;;;;;0.00;0.00;;;18.10;78.70;;;;;;4972503;28;20055;-64
2022/07/08 08:18:03;;;;;;;0.00;0.00;;;18.00;78.30;;;;;;4973769;28;20061;-65
2022/07/08 08:20:29;;;;;;;0.00;0.00;;;18.10;78.80;;;;;;4974787;28;20035;-65
2022/07/08 08:22:55;;;;;;;0.00;0.00;;;18.10;78.80;;;;;;4993171;28;20046;-65
2022/07/08 08:25:21;;;;;;;0.45;0.45;;;18.20;78.40;;;;;;5007861;28;20524;-64
2022/07/08 08:27:47;;;;;;;0.08;0.08;;;18.20;77.20;;;;;;4991792;28;20050;-64
2022/07/08 08:30:15;;;;;;;0.00;0.00;;;18.30;76.80;;;;;;4977307;28;20097;-64
2022/07/08 08:32:41;;;;;;;0.00;0.00;;;18.30;76.10;;;;;;4973501;28;20113;-65
2022/07/08 08:35:08;;;;;;;0.00;0.00;;;18.30;76.30;;;;;;4972039;28;20050;-64
2022/07/08 08:37:34;;;;;;;0.00;0.00;;;18.40;76.20;;;;;;4972983;28;20563;-64
2022/07/08 08:40:21;;;;;;;0.75;0.65;;;18.40;76.20;;;;;;4971846;28;20058;-64
2022/07/08 08:42:47;;;;;;;0.00;0.00;;;18.50;76.40;;;;;;4988845;28;20101;-65
2022/07/08 08:45:12;;;;;;;0.00;0.00;;;18.50;76.20;;;;;;5005188;28;20049;-64
2022/07/08 08:47:39;;;;;;;0.63;0.43;;;18.60;75.80;;;;;;5010197;28;20550;-64
2022/07/08 08:52:53;;;;;;;0.00;0.00;;;18.70;75.60;;;;;;4992290;28;20062;-64
2022/07/08 08:55:24;;;;;;;0.00;0.00;;;18.80;75.30;;;;;;4991057;28;20136;-64
2022/07/08 08:57:50;;;;;;;0.30;0.30;;;18.90;75.10;;;;;;4991146;28;20046;-65
2022/07/08 09:00:16;;;;;;;0.52;0.52;;;19.00;74.80;;;;;;4983055;28;20065;-64
2022/07/08 09:02:41;;;;;;;0.00;0.00;;;19.10;73.20;;;;;;5011555;28;20131;-64
2022/07/08 09:05:08;;;;;;;0.00;0.00;;;19.10;71.80;;;;;;5010770;28;20491;-64
2022/07/08 09:07:34;;;;;;;0.00;0.00;;;19.10;70.80;;;;;;5011393;28;20045;-64
2022/07/08 09:10:37;;;;;;;0.00;0.00;;;19.10;71.00;;;;;;5010611;28;20045;-64
2022/07/08 09:13:10;;;;;;;0.00;0.00;;;19.20;70.80;;;;;;5002694;28;20043;-64
2022/07/08 09:15:38;;;;;;;0.00;0.00;;;19.30;70.80;;;;;;4971119;28;20049;-64
2022/07/08 09:18:13;;;;;;;0.00;0.00;;;19.20;68.80;;;;;;4971969;28;20055;-65
2022/07/08 09:20:41;;;;;;;1.17;0.57;;;19.30;70.30;;;;;;4972322;28;20547;-64
2022/07/08 09:23:22;;;;;;;0.00;0.00;;;19.30;69.20;;;;;;4971089;28;20043;-64
2022/07/08 09:25:53;;;;;;;0.00;0.00;;;19.50;70.00;;;;;;4972273;28;20047;-64
2022/07/08 09:28:33;;;;;;;0.00;0.00;;;19.50;70.50;;;;;;4974301;28;20595;-64
2022/07/08 09:31:01;;;;;;;0.00;0.00;;;19.50;69.00;;;;;;4991519;28;20483;-65
2022/07/08 09:33:27;;;;;;;0.40;0.40;;;19.60;69.20;;;;;;4990862;28;20125;-64
2022/07/08 09:35:55;;;;;;;0.00;0.00;;;19.60;69.90;;;;;;4990815;28;20042;-65
2022/07/08 09:38:22;;;;;;;0.00;0.00;;;19.80;70.00;;;;;;4991425;28;20121;-64
2022/07/08 09:41:05;;;;;;;0.00;0.00;;;19.70;68.60;;;;;;4991351;28;20074;-65
2022/07/08 09:43:32;;;;;;;0.00;0.00;;;19.80;68.90;;;;;;4989273;28;20452;-64
2022/07/08 09:46:07;;;;;;;0.00;0.00;;;19.90;68.70;;;;;;4991282;28;20104;-65
2022/07/08 09:48:33;;;;;;;0.00;0.00;;;19.90;68.70;;;;;;4990797;28;20049;-64
2022/07/08 09:51:05;;;;;;;0.00;0.00;;;19.80;67.80;;;;;;5004444;28;20050;-64
2022/07/08 09:53:31;;;;;;;0.00;0.00;;;19.90;68.60;;;;;;4994053;28;20197;-63
2022/07/08 09:55:58;;;;;;;0.00;0.00;;;19.90;68.70;;;;;;4990764;28;20556;-64
2022/07/08 09:58:27;;;;;;;0.00;0.00;;;19.90;69.00;;;;;;4989769;28;20065;-63
2022/07/08 10:00:54;;;;;;;0.00;0.00;;;20.00;69.20;;;;;;4990874;28;20514;-64
2022/07/08 10:03:22;;;;;;;0.10;0.10;;;19.90;68.10;;;;;;4990034;28;20502;-64
2022/07/08 10:05:48;;;;;;;0.00;0.00;;;20.00;69.80;;;;;;4990556;28;20531;-64
2022/07/08 10:08:15;;;;;;;0.00;0.00;;;20.10;70.90;;;;;;4991132;28;20146;-63
2022/07/08 10:10:43;;;;;;;0.00;0.00;;;20.10;70.10;;;;;;4989127;28;20077;-63
2022/07/08 10:13:09;;;;;;;0.00;0.00;;;20.30;69.40;;;;;;4978796;28;20053;-64
2022/07/08 10:15:36;;;;;;;0.05;0.05;;;20.30;70.30;;;;;;4985749;28;20046;-63
2022/07/08 10:18:30;;;;;;;0.10;0.10;;;20.30;69.40;;;;;;4990760;28;20178;-64
2022/07/08 10:20:58;;;;;;;0.00;0.00;;;20.30;69.80;;;;;;4988530;28;20046;-64
2022/07/08 10:23:32;;;;;;;0.03;0.03;;;20.30;70.20;;;;;;4990576;28;20467;-64
2022/07/08 10:25:59;;;;;;;0.10;0.10;;;20.10;71.10;;;;;;4991363;28;20050;-64
2022/07/08 10:28:36;;;;;;;4.03;1.45;;;20.10;71.30;;;;;;5009748;28;20111;-64
2022/07/08 10:31:01;;;;;;;0.00;0.00;;;20.10;71.40;;;;;;4971004;28;20043;-64
2022/07/08 10:33:29;;;;;;;0.00;0.00;;;20.20;71.80;;;;;;4978805;28;20491;-63
2022/07/08 10:36:08;;;;;;;0.00;0.00;;;20.30;71.30;;;;;;4989913;28;20104;-63
2022/07/08 10:38:39;;;;;;;0.00;0.00;;;20.30;71.80;;;;;;4989812;28;20077;-63
2022/07/08 10:41:08;;;;;;;;;;;20.20;71.00;;;;;;4971622;28;20046;-62
2022/07/08 10:43:34;;;;;;;0.00;0.00;;;20.20;71.40;;;;;;4977260;28;19977;-64
2022/07/08 10:46:01;;;;;;;0.00;0.00;;;20.30;71.60;;;;;;4989508;28;20543;-63
2022/07/08 10:48:39;;;;;;;0.00;0.00;;;20.30;71.60;;;;;;4989925;28;20050;-64
2022/07/08 10:51:05;;;;;;;0.00;0.00;;;20.30;71.80;;;;;;4975974;28;20137;-64
2022/07/08 10:53:47;;;;;;;0.08;0.08;;;20.30;72.10;;;;;;4982198;28;20134;-64
2022/07/08 10:56:33;;;;;;;0.00;0.00;;;20.30;72.20;;;;;;4976972;28;20042;-64
2022/07/08 10:59:20;;;;;;;0.00;0.00;;;20.30;73.00;;;;;;4987614;28;20050;-64
2022/07/08 11:01:54;;;;;;;0.00;0.00;;;20.40;73.00;;;;;;4990486;28;20213;-64
2022/07/08 11:04:33;;;;;;;0.00;0.00;;;20.50;73.30;;;;;;4998130;28;20125;-64
2022/07/08 11:07:29;;;;;;;0.00;0.00;;;20.50;72.70;;;;;;5009439;28;20041;-65
2022/07/08 11:10:09;;;;;;;0.15;0.15;;;20.40;72.50;;;;;;4998648;28;20078;-64
2022/07/08 11:12:36;;;;;;;0.00;0.00;;;20.40;73.40;;;;;;4989613;28;20055;-64
2022/07/08 11:15:10;;;;;;;0.82;0.80;;;20.40;73.40;;;;;;4997806;28;20070;-64
2022/07/08 11:17:37;;;;;;;0.00;0.00;;;20.30;73.60;;;;;;4997595;28;20082;-64
2022/07/08 11:20:10;;;;;;;0.47;0.43;;;20.30;74.50;;;;;;4989676;28;20104;-65
2022/07/08 11:22:37;;;;;;;0.00;0.00;;;20.30;74.40;;;;;;4987399;28;20034;-64
2022/07/08 11:25:04;;;;;;;1.90;0.40;;;20.40;74.60;;;;;;4994977;28;20042;-63
2022/07/08 11:27:33;;;;;;;0.03;0.03;;;20.30;74.40;;;;;;4994895;28;20046;-64
2022/07/08 11:30:00;;;;;;;0.17;0.17;;;20.30;74.80;;;;;;4997961;28;20038;-64
2022/07/08 11:32:28;;;;;;;0.20;0.20;;;20.30;75.20;;;;;;5001777;28;20049;-64
2022/07/08 11:34:55;;;;;;;0.30;0.22;;;20.30;75.00;;;;;;4995167;28;20117;-64
2022/07/08 11:37:22;;;;;;;0.25;0.25;;;20.40;75.00;;;;;;4996758;28;20408;-64
2022/07/08 11:39:47;;;;;;;1.20;0.32;;;20.50;75.00;;;;;;4979770;28;20049;-64
2022/07/08 11:42:15;;;;;;;0.80;0.80;;;20.50;74.90;;;;;;5009103;28;20469;-64
2022/07/08 11:44:41;;;;;;;0.00;0.00;;;20.50;74.60;;;;;;5003574;28;20042;-64
2022/07/08 11:47:10;;;;;;;0.00;0.00;;;20.50;74.70;;;;;;4984495;28;20604;-64
2022/07/08 11:49:41;;;;;;;0.03;0.03;;;20.60;75.20;;;;;;4994814;28;20038;-65
2022/07/08 11:52:07;;;;;;;0.00;0.00;;;20.80;75.70;;;;;;4979893;28;20042;-64
2022/07/08 11:54:32;;;;;;;0.00;0.00;;;20.90;75.00;;;;;;4992019;28;20039;-63
2022/07/08 11:57:00;;;;;;;0.65;0.65;;;20.90;74.80;;;;;;4984377;28;20515;-64
2022/07/08 11:59:30;;;;;;;0.47;0.47;;;20.80;75.70;;;;;;4973844;28;20511;-65
2022/07/08 12:02:00;;;;;;;0.00;0.00;;;20.80;75.80;;;;;;4973837;28;20078;-64
2022/07/08 12:04:26;;;;;;;0.10;0.10;;;20.80;74.30;;;;;;4956528;28;20054;-65
2022/07/08 12:06:54;;;;;;;0.00;0.00;;;20.90;73.90;;;;;;4984192;28;20050;-65
2022/07/08 12:09:21;;;;;;;0.00;0.00;;;20.90;74.30;;;;;;4984653;28;20488;-67
2022/07/08 12:11:49;;;;;;;0.00;0.00;;;21.00;73.70;;;;;;4981223;28;20083;-67
2022/07/08 12:14:16;;;;;;;0.00;0.00;;;21.00;73.80;;;;;;4991739;28;20053;-64
2022/07/08 12:16:49;;;;;;;0.00;0.00;;;21.10;74.00;;;;;;4984709;28;20066;-66
2022/07/08 12:19:45;;;;;;;0.00;0.00;;;21.20;73.90;;;;;;4985778;28;20058;-65
2022/07/08 12:22:13;;;;;;;0.00;0.00;;;21.30;74.70;;;;;;4976296;28;20066;-65
2022/07/08 12:24:40;;;;;;;0.00;0.00;;;21.30;74.40;;;;;;4988971;28;20039;-64
2022/07/08 12:27:09;;;;;;;0.00;0.00;;;21.50;74.10;;;;;;4990585;28;20070;-65
2022/07/08 12:29:37;;;;;;;0.00;0.00;;;21.40;73.00;;;;;;4992020;28;20045;-64
2022/07/08 12:32:04;;;;;;;0.00;0.00;;;21.50;73.90;;;;;;4978374;28;20062;-64
2022/07/08 12:34:29;;;;;;;0.00;0.00;;;21.60;74.50;;;;;;4981839;28;20047;-65
2022/07/08 12:37:13;;;;;;;0.50;0.45;;;21.50;73.00;;;;;;4977972;28;20062;-65
2022/07/08 12:39:39;;;;;;;0.10;0.10;;;21.40;73.10;;;;;;4990336;28;20038;-65
2022/07/08 12:42:05;;;;;;;0.00;0.00;;;21.50;73.80;;;;;;4983868;28;20388;-65
2022/07/08 12:44:39;;;;;;;0.00;0.00;;;21.50;73.70;;;;;;4972781;28;20066;-65
2022/07/08 12:47:07;;;;;;;2.90;1.38;;;21.50;73.70;;;;;;4989720;28;20397;-65
2022/07/08 12:49:34;;;;;;;0.00;0.00;;;21.60;73.50;;;;;;4990955;28;20043;-65
2022/07/08 12:52:01;;;;;;;0.10;0.10;;;21.70;73.90;;;;;;4991419;28;20560;-65
2022/07/08 12:54:28;;;;;;;0.00;0.00;;;21.90;73.10;;;;;;4989540;28;20081;-65